sensor_id;sensor_type;location;lat;lon;timestamp;P1;durP1;ratioP1;P2;durP2;ratioP2
5549;SDS011;2798;42.716;23.256;2023-02-15T00:01:40;32.00;;;19.17;;
5549;SDS011;2798;42.716;23.256;2023-02-15T00:04:06;29.20;;;17.90;;
5549;SDS011;2798;42.716;23.256;2023-02-15T00:06:31;31.53;;;18.10;;
5549;SDS011;2798;42.716;23.256;2023-02-15T00:08:56;32.90;;;18.70;;
5549;SDS011;2798;42.716;23.256;2023-02-15T00:11:22;32.33;;;19.47;;
5549;SDS011;2798;42.716;23.256;2023-02-15T00:14:16;30.97;;;18.47;;
5549;SDS011;2798;42.716;23.256;2023-02-15T00:16:42;30.73;;;18.17;;
5549;SDS011;2798;42.716;23.256;2023-02-15T00:19:08;28.80;;;18.53;;
5549;SDS011;2798;42.716;23.256;2023-02-15T00:21:34;30.20;;;19.57;;
5549;SDS011;2798;42.716;23.256;2023-02-15T00:24:00;31.93;;;19.00;;
5549;SDS011;2798;42.716;23.256;2023-02-15T00:26:26;32.20;;;18.47;;
5549;SDS011;2798;42.716;23.256;2023-02-15T00:28:51;29.30;;;18.57;;
5549;SDS011;2798;42.716;23.256;2023-02-15T00:31:17;30.70;;;18.80;;
5549;SDS011;2798;42.716;23.256;2023-02-15T00:33:42;30.67;;;17.93;;
5549;SDS011;2798;42.716;23.256;2023-02-15T00:36:08;35.60;;;17.47;;
5549;SDS011;2798;42.716;23.256;2023-02-15T00:38:33;27.77;;;17.40;;
5549;SDS011;2798;42.716;23.256;2023-02-15T00:41:00;29.70;;;18.47;;
5549;SDS011;2798;42.716;23.256;2023-02-15T00:43:26;31.87;;;19.20;;
5549;SDS011;2798;42.716;23.256;2023-02-15T00:45:52;29.47;;;17.87;;
5549;SDS011;2798;42.716;23.256;2023-02-15T00:48:18;27.77;;;18.20;;
5549;SDS011;2798;42.716;23.256;2023-02-15T00:50:50;32.40;;;17.40;;
5549;SDS011;2798;42.716;23.256;2023-02-15T00:53:15;27.00;;;17.00;;
5549;SDS011;2798;42.716;23.256;2023-02-15T00:55:40;28.40;;;17.47;;
5549;SDS011;2798;42.716;23.256;2023-02-15T00:58:06;27.63;;;17.00;;
5549;SDS011;2798;42.716;23.256;2023-02-15T01:00:31;29.27;;;18.13;;
5549;SDS011;2798;42.716;23.256;2023-02-15T01:02:57;27.00;;;17.57;;
5549;SDS011;2798;42.716;23.256;2023-02-15T01:05:23;26.87;;;16.27;;
5549;SDS011;2798;42.716;23.256;2023-02-15T01:07:48;30.07;;;17.07;;
5549;SDS011;2798;42.716;23.256;2023-02-15T01:10:13;25.50;;;15.70;;
5549;SDS011;2798;42.716;23.256;2023-02-15T01:12:39;27.23;;;15.87;;
5549;SDS011;2798;42.716;23.256;2023-02-15T01:15:04;29.23;;;15.70;;
5549;SDS011;2798;42.716;23.256;2023-02-15T01:17:30;26.47;;;16.37;;
5549;SDS011;2798;42.716;23.256;2023-02-15T01:19:55;25.87;;;15.80;;
5549;SDS011;2798;42.716;23.256;2023-02-15T01:22:21;26.90;;;15.57;;
5549;SDS011;2798;42.716;23.256;2023-02-15T01:24:48;25.77;;;16.53;;
5549;SDS011;2798;42.716;23.256;2023-02-15T01:27:13;27.87;;;16.47;;
5549;SDS011;2798;42.716;23.256;2023-02-15T01:29:38;24.27;;;16.20;;
5549;SDS011;2798;42.716;23.256;2023-02-15T01:32:04;26.97;;;15.70;;
5549;SDS011;2798;42.716;23.256;2023-02-15T01:34:29;28.53;;;16.73;;
5549;SDS011;2798;42.716;23.256;2023-02-15T01:36:55;27.40;;;15.67;;
5549;SDS011;2798;42.716;23.256;2023-02-15T01:39:20;26.07;;;17.03;;
5549;SDS011;2798;42.716;23.256;2023-02-15T01:41:45;27.33;;;16.30;;
5549;SDS011;2798;42.716;23.256;2023-02-15T01:44:40;32.53;;;17.33;;
5549;SDS011;2798;42.716;23.256;2023-02-15T01:47:05;23.90;;;14.70;;
5549;SDS011;2798;42.716;23.256;2023-02-15T01:49:30;24.33;;;14.77;;
5549;SDS011;2798;42.716;23.256;2023-02-15T01:51:55;27.83;;;16.80;;
5549;SDS011;2798;42.716;23.256;2023-02-15T01:54:25;25.30;;;14.70;;
5549;SDS011;2798;42.716;23.256;2023-02-15T01:56:52;27.30;;;16.07;;
5549;SDS011;2798;42.716;23.256;2023-02-15T01:59:19;24.30;;;14.90;;
5549;SDS011;2798;42.716;23.256;2023-02-15T02:01:45;25.77;;;15.50;;
5549;SDS011;2798;42.716;23.256;2023-02-15T02:04:24;28.90;;;16.07;;
5549;SDS011;2798;42.716;23.256;2023-02-15T02:06:50;25.50;;;14.90;;
5549;SDS011;2798;42.716;23.256;2023-02-15T02:09:16;24.40;;;14.80;;
5549;SDS011;2798;42.716;23.256;2023-02-15T02:11:41;27.17;;;16.77;;
5549;SDS011;2798;42.716;23.256;2023-02-15T02:14:09;26.33;;;16.17;;
5549;SDS011;2798;42.716;23.256;2023-02-15T02:17:10;26.87;;;15.97;;
5549;SDS011;2798;42.716;23.256;2023-02-15T02:19:36;27.90;;;15.20;;
5549;SDS011;2798;42.716;23.256;2023-02-15T02:35:18;27.20;;;15.80;;
5549;SDS011;2798;42.716;23.256;2023-02-15T02:42:49;26.10;;;16.07;;
5549;SDS011;2798;42.716;23.256;2023-02-15T02:45:26;27.13;;;15.77;;
5549;SDS011;2798;42.716;23.256;2023-02-15T02:47:55;27.07;;;15.23;;
5549;SDS011;2798;42.716;23.256;2023-02-15T02:50:23;23.83;;;14.70;;
5549;SDS011;2798;42.716;23.256;2023-02-15T02:52:51;25.40;;;15.70;;
5549;SDS011;2798;42.716;23.256;2023-02-15T02:57:43;25.67;;;15.30;;
5549;SDS011;2798;42.716;23.256;2023-02-15T03:00:10;25.03;;;14.97;;
5549;SDS011;2798;42.716;23.256;2023-02-15T03:02:38;25.90;;;15.17;;
5549;SDS011;2798;42.716;23.256;2023-02-15T03:05:05;26.50;;;15.27;;
5549;SDS011;2798;42.716;23.256;2023-02-15T03:07:32;28.30;;;15.97;;
5549;SDS011;2798;42.716;23.256;2023-02-15T03:09:59;26.77;;;15.80;;
5549;SDS011;2798;42.716;23.256;2023-02-15T03:12:35;26.13;;;15.40;;
5549;SDS011;2798;42.716;23.256;2023-02-15T03:15:05;27.47;;;16.40;;
5549;SDS011;2798;42.716;23.256;2023-02-15T03:17:32;27.47;;;15.97;;
5549;SDS011;2798;42.716;23.256;2023-02-15T03:20:00;28.80;;;15.83;;
5549;SDS011;2798;42.716;23.256;2023-02-15T03:22:28;29.37;;;16.77;;
5549;SDS011;2798;42.716;23.256;2023-02-15T03:25:08;28.00;;;16.13;;
5549;SDS011;2798;42.716;23.256;2023-02-15T03:27:36;27.27;;;15.50;;
5549;SDS011;2798;42.716;23.256;2023-02-15T03:30:03;28.20;;;15.80;;
5549;SDS011;2798;42.716;23.256;2023-02-15T03:32:29;30.30;;;15.83;;
5549;SDS011;2798;42.716;23.256;2023-02-15T03:34:56;27.23;;;14.80;;
5549;SDS011;2798;42.716;23.256;2023-02-15T03:37:38;28.80;;;16.10;;
5549;SDS011;2798;42.716;23.256;2023-02-15T03:40:13;29.07;;;16.47;;
5549;SDS011;2798;42.716;23.256;2023-02-15T03:43:01;26.63;;;16.10;;
5549;SDS011;2798;42.716;23.256;2023-02-15T03:45:30;27.83;;;15.20;;
5549;SDS011;2798;42.716;23.256;2023-02-15T03:47:56;27.30;;;15.73;;
5549;SDS011;2798;42.716;23.256;2023-02-15T03:50:24;25.90;;;15.57;;
5549;SDS011;2798;42.716;23.256;2023-02-15T03:53:10;27.40;;;15.40;;
5549;SDS011;2798;42.716;23.256;2023-02-15T03:55:36;30.27;;;16.40;;
5549;SDS011;2798;42.716;23.256;2023-02-15T03:58:03;26.60;;;14.97;;
5549;SDS011;2798;42.716;23.256;2023-02-15T04:00:55;27.33;;;16.77;;
5549;SDS011;2798;42.716;23.256;2023-02-15T04:03:42;26.10;;;16.17;;
5549;SDS011;2798;42.716;23.256;2023-02-15T04:06:08;25.53;;;16.00;;
5549;SDS011;2798;42.716;23.256;2023-02-15T04:08:34;24.03;;;14.60;;
5549;SDS011;2798;42.716;23.256;2023-02-15T04:11:17;26.40;;;16.27;;
5549;SDS011;2798;42.716;23.256;2023-02-15T04:13:43;27.23;;;15.30;;
5549;SDS011;2798;42.716;23.256;2023-02-15T04:16:08;23.60;;;14.27;;
5549;SDS011;2798;42.716;23.256;2023-02-15T04:21:21;25.63;;;15.70;;
5549;SDS011;2798;42.716;23.256;2023-02-15T04:24:05;26.47;;;15.03;;
5549;SDS011;2798;42.716;23.256;2023-02-15T04:26:49;24.93;;;14.80;;
5549;SDS011;2798;42.716;23.256;2023-02-15T04:29:17;26.93;;;15.73;;
5549;SDS011;2798;42.716;23.256;2023-02-15T04:31:43;26.80;;;15.43;;
5549;SDS011;2798;42.716;23.256;2023-02-15T04:34:08;27.07;;;15.47;;
5549;SDS011;2798;42.716;23.256;2023-02-15T04:36:34;27.03;;;15.70;;
5549;SDS011;2798;42.716;23.256;2023-02-15T04:39:00;28.00;;;14.80;;
5549;SDS011;2798;42.716;23.256;2023-02-15T04:41:25;22.70;;;13.90;;
5549;SDS011;2798;42.716;23.256;2023-02-15T04:43:50;24.30;;;14.67;;
5549;SDS011;2798;42.716;23.256;2023-02-15T04:46:15;26.30;;;16.27;;
5549;SDS011;2798;42.716;23.256;2023-02-15T04:48:41;27.10;;;16.47;;
5549;SDS011;2798;42.716;23.256;2023-02-15T04:51:06;27.77;;;15.23;;
5549;SDS011;2798;42.716;23.256;2023-02-15T04:53:32;24.67;;;15.67;;
5549;SDS011;2798;42.716;23.256;2023-02-15T04:55:57;24.93;;;15.87;;
5549;SDS011;2798;42.716;23.256;2023-02-15T04:58:22;25.13;;;14.70;;
5549;SDS011;2798;42.716;23.256;2023-02-15T05:00:47;24.67;;;15.57;;
5549;SDS011;2798;42.716;23.256;2023-02-15T05:03:13;27.03;;;14.73;;
5549;SDS011;2798;42.716;23.256;2023-02-15T05:05:38;21.13;;;13.50;;
5549;SDS011;2798;42.716;23.256;2023-02-15T05:08:03;24.30;;;14.87;;
5549;SDS011;2798;42.716;23.256;2023-02-15T05:10:28;21.70;;;13.70;;
5549;SDS011;2798;42.716;23.256;2023-02-15T05:12:54;23.20;;;14.70;;
5549;SDS011;2798;42.716;23.256;2023-02-15T05:15:19;24.83;;;14.90;;
5549;SDS011;2798;42.716;23.256;2023-02-15T05:17:44;24.27;;;14.43;;
5549;SDS011;2798;42.716;23.256;2023-02-15T05:20:09;21.50;;;13.63;;
5549;SDS011;2798;42.716;23.256;2023-02-15T05:22:35;23.90;;;14.00;;
5549;SDS011;2798;42.716;23.256;2023-02-15T05:25:00;24.50;;;13.93;;
5549;SDS011;2798;42.716;23.256;2023-02-15T05:27:44;24.20;;;14.70;;
5549;SDS011;2798;42.716;23.256;2023-02-15T05:30:28;27.80;;;15.83;;
5549;SDS011;2798;42.716;23.256;2023-02-15T05:32:53;23.17;;;13.50;;
5549;SDS011;2798;42.716;23.256;2023-02-15T05:35:18;23.00;;;14.20;;
5549;SDS011;2798;42.716;23.256;2023-02-15T05:37:43;26.07;;;14.50;;
5549;SDS011;2798;42.716;23.256;2023-02-15T05:40:09;25.10;;;14.70;;
5549;SDS011;2798;42.716;23.256;2023-02-15T05:42:34;22.47;;;14.37;;
5549;SDS011;2798;42.716;23.256;2023-02-15T05:44:59;21.17;;;13.60;;
5549;SDS011;2798;42.716;23.256;2023-02-15T05:47:25;22.70;;;14.07;;
5549;SDS011;2798;42.716;23.256;2023-02-15T05:49:50;24.90;;;14.20;;
5549;SDS011;2798;42.716;23.256;2023-02-15T05:52:15;24.20;;;14.57;;
5549;SDS011;2798;42.716;23.256;2023-02-15T05:54:40;24.37;;;15.00;;
5549;SDS011;2798;42.716;23.256;2023-02-15T05:57:06;25.47;;;15.10;;
5549;SDS011;2798;42.716;23.256;2023-02-15T05:59:31;22.20;;;13.70;;
5549;SDS011;2798;42.716;23.256;2023-02-15T06:01:56;20.47;;;13.30;;
5549;SDS011;2798;42.716;23.256;2023-02-15T06:04:21;24.60;;;15.10;;
5549;SDS011;2798;42.716;23.256;2023-02-15T06:06:47;22.10;;;14.50;;
5549;SDS011;2798;42.716;23.256;2023-02-15T06:09:12;24.57;;;14.60;;
5549;SDS011;2798;42.716;23.256;2023-02-15T06:11:38;21.80;;;13.50;;
5549;SDS011;2798;42.716;23.256;2023-02-15T06:14:03;23.80;;;13.47;;
5549;SDS011;2798;42.716;23.256;2023-02-15T06:16:28;23.10;;;13.53;;
5549;SDS011;2798;42.716;23.256;2023-02-15T06:18:54;23.10;;;13.47;;
5549;SDS011;2798;42.716;23.256;2023-02-15T06:21:19;22.40;;;13.53;;
5549;SDS011;2798;42.716;23.256;2023-02-15T06:23:44;22.10;;;13.93;;
5549;SDS011;2798;42.716;23.256;2023-02-15T06:26:09;22.80;;;14.50;;
5549;SDS011;2798;42.716;23.256;2023-02-15T06:28:35;27.10;;;14.50;;
5549;SDS011;2798;42.716;23.256;2023-02-15T06:31:00;22.67;;;13.83;;
5549;SDS011;2798;42.716;23.256;2023-02-15T06:33:25;22.50;;;14.13;;
5549;SDS011;2798;42.716;23.256;2023-02-15T06:35:50;21.10;;;13.10;;
5549;SDS011;2798;42.716;23.256;2023-02-15T06:38:16;22.63;;;13.60;;
5549;SDS011;2798;42.716;23.256;2023-02-15T06:40:42;19.73;;;12.50;;
5549;SDS011;2798;42.716;23.256;2023-02-15T06:43:07;20.50;;;12.70;;
5549;SDS011;2798;42.716;23.256;2023-02-15T06:45:32;23.77;;;13.67;;
5549;SDS011;2798;42.716;23.256;2023-02-15T06:47:58;20.30;;;13.07;;
5549;SDS011;2798;42.716;23.256;2023-02-15T06:50:23;19.03;;;11.87;;
5549;SDS011;2798;42.716;23.256;2023-02-15T06:52:48;22.20;;;14.13;;
5549;SDS011;2798;42.716;23.256;2023-02-15T06:55:13;21.00;;;13.47;;
5549;SDS011;2798;42.716;23.256;2023-02-15T06:57:39;19.73;;;12.07;;
5549;SDS011;2798;42.716;23.256;2023-02-15T07:00:04;21.03;;;12.40;;
5549;SDS011;2798;42.716;23.256;2023-02-15T07:02:30;22.73;;;12.83;;
5549;SDS011;2798;42.716;23.256;2023-02-15T07:04:56;21.73;;;13.80;;
5549;SDS011;2798;42.716;23.256;2023-02-15T07:07:21;20.67;;;12.63;;
5549;SDS011;2798;42.716;23.256;2023-02-15T07:09:46;19.93;;;13.27;;
5549;SDS011;2798;42.716;23.256;2023-02-15T07:12:12;19.97;;;12.43;;
5549;SDS011;2798;42.716;23.256;2023-02-15T07:14:55;23.03;;;12.87;;
5549;SDS011;2798;42.716;23.256;2023-02-15T07:17:23;23.80;;;14.13;;
5549;SDS011;2798;42.716;23.256;2023-02-15T07:19:48;22.63;;;14.07;;
5549;SDS011;2798;42.716;23.256;2023-02-15T07:22:13;22.43;;;14.23;;
5549;SDS011;2798;42.716;23.256;2023-02-15T07:24:38;19.60;;;13.13;;
5549;SDS011;2798;42.716;23.256;2023-02-15T07:27:04;23.60;;;13.50;;
5549;SDS011;2798;42.716;23.256;2023-02-15T07:29:31;19.97;;;12.40;;
5549;SDS011;2798;42.716;23.256;2023-02-15T07:31:56;20.40;;;13.40;;
5549;SDS011;2798;42.716;23.256;2023-02-15T07:34:21;22.57;;;13.00;;
5549;SDS011;2798;42.716;23.256;2023-02-15T07:36:46;20.90;;;13.73;;
5549;SDS011;2798;42.716;23.256;2023-02-15T07:39:12;20.03;;;12.27;;
5549;SDS011;2798;42.716;23.256;2023-02-15T07:41:37;19.47;;;12.50;;
5549;SDS011;2798;42.716;23.256;2023-02-15T07:44:02;18.87;;;12.20;;
5549;SDS011;2798;42.716;23.256;2023-02-15T07:46:28;19.63;;;11.53;;
5549;SDS011;2798;42.716;23.256;2023-02-15T07:48:53;19.13;;;12.10;;
5549;SDS011;2798;42.716;23.256;2023-02-15T07:51:18;24.17;;;13.40;;
5549;SDS011;2798;42.716;23.256;2023-02-15T07:53:44;17.73;;;11.57;;
5549;SDS011;2798;42.716;23.256;2023-02-15T07:56:10;20.33;;;12.17;;
5549;SDS011;2798;42.716;23.256;2023-02-15T07:58:36;18.90;;;11.93;;
5549;SDS011;2798;42.716;23.256;2023-02-15T08:01:35;22.27;;;13.10;;
5549;SDS011;2798;42.716;23.256;2023-02-15T08:04:00;18.60;;;11.77;;
5549;SDS011;2798;42.716;23.256;2023-02-15T08:06:29;17.53;;;11.80;;
5549;SDS011;2798;42.716;23.256;2023-02-15T08:08:54;17.57;;;11.87;;
5549;SDS011;2798;42.716;23.256;2023-02-15T08:11:27;18.83;;;11.93;;
5549;SDS011;2798;42.716;23.256;2023-02-15T08:14:05;17.53;;;11.40;;
5549;SDS011;2798;42.716;23.256;2023-02-15T08:16:41;19.67;;;11.80;;
5549;SDS011;2798;42.716;23.256;2023-02-15T08:19:11;20.30;;;11.93;;
5549;SDS011;2798;42.716;23.256;2023-02-15T08:21:37;21.00;;;12.67;;
5549;SDS011;2798;42.716;23.256;2023-02-15T08:24:03;17.63;;;11.10;;
5549;SDS011;2798;42.716;23.256;2023-02-15T08:26:29;18.13;;;12.33;;
5549;SDS011;2798;42.716;23.256;2023-02-15T08:28:55;20.20;;;12.30;;
5549;SDS011;2798;42.716;23.256;2023-02-15T08:31:20;20.07;;;12.70;;
5549;SDS011;2798;42.716;23.256;2023-02-15T08:33:47;18.87;;;12.33;;
5549;SDS011;2798;42.716;23.256;2023-02-15T08:36:13;18.20;;;11.77;;
5549;SDS011;2798;42.716;23.256;2023-02-15T08:38:39;22.23;;;12.50;;
5549;SDS011;2798;42.716;23.256;2023-02-15T08:41:11;21.40;;;12.27;;
5549;SDS011;2798;42.716;23.256;2023-02-15T08:43:37;23.17;;;12.20;;
5549;SDS011;2798;42.716;23.256;2023-02-15T08:46:03;18.93;;;12.40;;
5549;SDS011;2798;42.716;23.256;2023-02-15T08:48:28;19.90;;;12.80;;
5549;SDS011;2798;42.716;23.256;2023-02-15T08:50:53;17.20;;;11.67;;
5549;SDS011;2798;42.716;23.256;2023-02-15T08:53:19;22.53;;;11.33;;
5549;SDS011;2798;42.716;23.256;2023-02-15T08:55:46;16.70;;;10.93;;
5549;SDS011;2798;42.716;23.256;2023-02-15T08:58:11;18.37;;;11.57;;
5549;SDS011;2798;42.716;23.256;2023-02-15T09:00:37;13.67;;;10.30;;
5549;SDS011;2798;42.716;23.256;2023-02-15T09:03:02;16.80;;;10.27;;
5549;SDS011;2798;42.716;23.256;2023-02-15T09:05:28;16.50;;;11.33;;
5549;SDS011;2798;42.716;23.256;2023-02-15T09:07:53;16.00;;;11.23;;
5549;SDS011;2798;42.716;23.256;2023-02-15T09:10:18;16.57;;;11.00;;
5549;SDS011;2798;42.716;23.256;2023-02-15T09:12:44;25.40;;;12.90;;
5549;SDS011;2798;42.716;23.256;2023-02-15T09:15:10;18.20;;;11.50;;
5549;SDS011;2798;42.716;23.256;2023-02-15T09:17:35;21.10;;;13.00;;
5549;SDS011;2798;42.716;23.256;2023-02-15T09:20:01;16.13;;;10.63;;
5549;SDS011;2798;42.716;23.256;2023-02-15T09:22:26;17.73;;;11.80;;
5549;SDS011;2798;42.716;23.256;2023-02-15T09:24:51;14.60;;;10.80;;
5549;SDS011;2798;42.716;23.256;2023-02-15T09:27:16;18.60;;;11.20;;
5549;SDS011;2798;42.716;23.256;2023-02-15T09:29:42;15.57;;;11.30;;
5549;SDS011;2798;42.716;23.256;2023-02-15T09:32:07;19.40;;;11.70;;
5549;SDS011;2798;42.716;23.256;2023-02-15T09:34:32;16.20;;;11.43;;
5549;SDS011;2798;42.716;23.256;2023-02-15T09:36:57;19.50;;;11.23;;
5549;SDS011;2798;42.716;23.256;2023-02-15T09:39:23;14.83;;;10.47;;
5549;SDS011;2798;42.716;23.256;2023-02-15T09:46:57;15.60;;;11.10;;
5549;SDS011;2798;42.716;23.256;2023-02-15T09:52:17;16.90;;;11.30;;
5549;SDS011;2798;42.716;23.256;2023-02-15T09:55:05;19.37;;;13.90;;
5549;SDS011;2798;42.716;23.256;2023-02-15T09:57:43;17.23;;;12.60;;
5549;SDS011;2798;42.716;23.256;2023-02-15T10:08:21;17.30;;;13.20;;
5549;SDS011;2798;42.716;23.256;2023-02-15T10:14:03;20.27;;;13.23;;
5549;SDS011;2798;42.716;23.256;2023-02-15T10:19:16;19.50;;;13.37;;
5549;SDS011;2798;42.716;23.256;2023-02-15T10:21:59;19.77;;;13.33;;
5549;SDS011;2798;42.716;23.256;2023-02-15T10:26:51;19.07;;;14.20;;
5549;SDS011;2798;42.716;23.256;2023-02-15T10:29:32;16.47;;;12.17;;
5549;SDS011;2798;42.716;23.256;2023-02-15T10:34:43;19.00;;;13.00;;
5549;SDS011;2798;42.716;23.256;2023-02-15T10:39:59;18.87;;;13.43;;
5549;SDS011;2798;42.716;23.256;2023-02-15T10:48:05;21.80;;;14.30;;
5549;SDS011;2798;42.716;23.256;2023-02-15T10:55:49;18.00;;;12.77;;
5549;SDS011;2798;42.716;23.256;2023-02-15T10:58:23;17.23;;;11.80;;
5549;SDS011;2798;42.716;23.256;2023-02-15T11:00:53;20.73;;;13.43;;
5549;SDS011;2798;42.716;23.256;2023-02-15T11:08:19;22.80;;;14.73;;
5549;SDS011;2798;42.716;23.256;2023-02-15T11:10:56;20.57;;;13.90;;
5549;SDS011;2798;42.716;23.256;2023-02-15T11:13:25;18.23;;;13.63;;
5549;SDS011;2798;42.716;23.256;2023-02-15T11:18:23;18.20;;;13.90;;
5549;SDS011;2798;42.716;23.256;2023-02-15T11:21:10;20.97;;;13.93;;
5549;SDS011;2798;42.716;23.256;2023-02-15T11:23:40;21.63;;;13.40;;
5549;SDS011;2798;42.716;23.256;2023-02-15T11:26:10;21.30;;;13.00;;
5549;SDS011;2798;42.716;23.256;2023-02-15T11:28:38;20.37;;;14.50;;
5549;SDS011;2798;42.716;23.256;2023-02-15T11:31:16;20.03;;;13.90;;
5549;SDS011;2798;42.716;23.256;2023-02-15T11:33:43;19.13;;;13.77;;
5549;SDS011;2798;42.716;23.256;2023-02-15T11:38:38;17.27;;;13.10;;
5549;SDS011;2798;42.716;23.256;2023-02-15T11:41:11;20.30;;;13.87;;
5549;SDS011;2798;42.716;23.256;2023-02-15T11:44:11;19.70;;;13.60;;
5549;SDS011;2798;42.716;23.256;2023-02-15T11:46:30;19.53;;;13.40;;
5549;SDS011;2798;42.716;23.256;2023-02-15T11:48:55;21.30;;;13.30;;
5549;SDS011;2798;42.716;23.256;2023-02-15T11:51:21;18.23;;;12.73;;
5549;SDS011;2798;42.716;23.256;2023-02-15T11:53:47;20.33;;;14.43;;
5549;SDS011;2798;42.716;23.256;2023-02-15T11:56:17;18.07;;;13.10;;
5549;SDS011;2798;42.716;23.256;2023-02-15T12:04:04;19.27;;;13.80;;
5549;SDS011;2798;42.716;23.256;2023-02-15T12:06:32;18.13;;;13.30;;
5549;SDS011;2798;42.716;23.256;2023-02-15T12:11:28;18.83;;;13.40;;
5549;SDS011;2798;42.716;23.256;2023-02-15T12:13:56;18.57;;;12.80;;
5549;SDS011;2798;42.716;23.256;2023-02-15T12:16:22;19.93;;;13.80;;
5549;SDS011;2798;42.716;23.256;2023-02-15T12:18:48;18.63;;;13.40;;
5549;SDS011;2798;42.716;23.256;2023-02-15T12:21:29;20.57;;;14.30;;
5549;SDS011;2798;42.716;23.256;2023-02-15T12:23:57;21.43;;;14.37;;
5549;SDS011;2798;42.716;23.256;2023-02-15T12:26:27;19.97;;;13.93;;
5549;SDS011;2798;42.716;23.256;2023-02-15T12:28:53;20.70;;;13.97;;
5549;SDS011;2798;42.716;23.256;2023-02-15T12:31:20;19.17;;;13.90;;
5549;SDS011;2798;42.716;23.256;2023-02-15T12:33:47;21.40;;;14.07;;
5549;SDS011;2798;42.716;23.256;2023-02-15T12:36:15;19.90;;;13.17;;
5549;SDS011;2798;42.716;23.256;2023-02-15T12:38:42;18.90;;;13.60;;
5549;SDS011;2798;42.716;23.256;2023-02-15T12:41:28;22.20;;;13.00;;
5549;SDS011;2798;42.716;23.256;2023-02-15T12:44:38;17.83;;;12.80;;
5549;SDS011;2798;42.716;23.256;2023-02-15T12:46:38;21.50;;;13.93;;
5549;SDS011;2798;42.716;23.256;2023-02-15T12:51:55;20.30;;;14.10;;
5549;SDS011;2798;42.716;23.256;2023-02-15T12:54:33;21.23;;;13.20;;
5549;SDS011;2798;42.716;23.256;2023-02-15T12:56:59;18.80;;;12.50;;
5549;SDS011;2798;42.716;23.256;2023-02-15T12:59:37;18.50;;;12.97;;
5549;SDS011;2798;42.716;23.256;2023-02-15T13:02:15;19.53;;;13.77;;
5549;SDS011;2798;42.716;23.256;2023-02-15T13:04:47;18.60;;;13.70;;
5549;SDS011;2798;42.716;23.256;2023-02-15T13:07:13;19.30;;;13.27;;
5549;SDS011;2798;42.716;23.256;2023-02-15T13:09:39;20.20;;;12.93;;
5549;SDS011;2798;42.716;23.256;2023-02-15T13:12:15;16.60;;;12.53;;
5549;SDS011;2798;42.716;23.256;2023-02-15T13:14:45;18.47;;;12.73;;
5549;SDS011;2798;42.716;23.256;2023-02-15T13:17:11;16.77;;;12.07;;
5549;SDS011;2798;42.716;23.256;2023-02-15T13:19:39;18.13;;;13.13;;
5549;SDS011;2798;42.716;23.256;2023-02-15T13:22:07;18.50;;;13.53;;
5549;SDS011;2798;42.716;23.256;2023-02-15T13:27:04;21.80;;;13.67;;
5549;SDS011;2798;42.716;23.256;2023-02-15T13:29:31;17.83;;;12.80;;
5549;SDS011;2798;42.716;23.256;2023-02-15T13:31:57;19.20;;;13.33;;
5549;SDS011;2798;42.716;23.256;2023-02-15T13:34:27;21.83;;;13.33;;
5549;SDS011;2798;42.716;23.256;2023-02-15T13:37:02;19.73;;;13.20;;
5549;SDS011;2798;42.716;23.256;2023-02-15T13:39:38;21.80;;;13.63;;
5549;SDS011;2798;42.716;23.256;2023-02-15T13:42:12;21.80;;;13.27;;
5549;SDS011;2798;42.716;23.256;2023-02-15T14:04:53;18.60;;;13.77;;
5549;SDS011;2798;42.716;23.256;2023-02-15T14:10:21;21.40;;;14.50;;
5549;SDS011;2798;42.716;23.256;2023-02-15T14:12:57;22.10;;;14.43;;
5549;SDS011;2798;42.716;23.256;2023-02-15T14:23:19;17.63;;;12.73;;
5549;SDS011;2798;42.716;23.256;2023-02-15T14:26:03;18.47;;;13.60;;
5549;SDS011;2798;42.716;23.256;2023-02-15T14:31:06;20.60;;;14.20;;
5549;SDS011;2798;42.716;23.256;2023-02-15T14:35:59;20.33;;;13.80;;
5549;SDS011;2798;42.716;23.256;2023-02-15T14:38:38;21.10;;;13.80;;
5549;SDS011;2798;42.716;23.256;2023-02-15T14:41:08;16.40;;;13.00;;
5549;SDS011;2798;42.716;23.256;2023-02-15T14:46:25;23.80;;;13.93;;
5549;SDS011;2798;42.716;23.256;2023-02-15T14:48:55;20.17;;;13.97;;
5549;SDS011;2798;42.716;23.256;2023-02-15T14:54:06;20.40;;;14.43;;
5549;SDS011;2798;42.716;23.256;2023-02-15T14:56:31;23.13;;;14.37;;
5549;SDS011;2798;42.716;23.256;2023-02-15T14:59:18;19.47;;;13.23;;
5549;SDS011;2798;42.716;23.256;2023-02-15T15:01:47;16.00;;;12.13;;
5549;SDS011;2798;42.716;23.256;2023-02-15T15:04:23;19.50;;;12.63;;
5549;SDS011;2798;42.716;23.256;2023-02-15T15:06:57;20.93;;;13.53;;
5549;SDS011;2798;42.716;23.256;2023-02-15T15:09:27;19.70;;;13.63;;
5549;SDS011;2798;42.716;23.256;2023-02-15T15:11:53;19.87;;;13.27;;
5549;SDS011;2798;42.716;23.256;2023-02-15T15:17:51;20.60;;;13.53;;
5549;SDS011;2798;42.716;23.256;2023-02-15T15:19:59;20.20;;;13.93;;
5549;SDS011;2798;42.716;23.256;2023-02-15T15:22:26;17.40;;;13.23;;
5549;SDS011;2798;42.716;23.256;2023-02-15T15:24:54;19.90;;;13.70;;
5549;SDS011;2798;42.716;23.256;2023-02-15T15:30:49;18.10;;;13.83;;
5549;SDS011;2798;42.716;23.256;2023-02-15T15:40:54;17.93;;;12.50;;
5549;SDS011;2798;42.716;23.256;2023-02-15T15:48:44;19.07;;;13.40;;
5549;SDS011;2798;42.716;23.256;2023-02-15T15:51:11;18.73;;;13.83;;
5549;SDS011;2798;42.716;23.256;2023-02-15T15:53:38;19.70;;;12.97;;
5549;SDS011;2798;42.716;23.256;2023-02-15T15:56:06;20.83;;;15.10;;
5549;SDS011;2798;42.716;23.256;2023-02-15T15:58:33;20.77;;;14.47;;
5549;SDS011;2798;42.716;23.256;2023-02-15T16:00:59;23.00;;;16.47;;
5549;SDS011;2798;42.716;23.256;2023-02-15T16:03:27;23.27;;;14.07;;
5549;SDS011;2798;42.716;23.256;2023-02-15T16:05:53;24.03;;;14.93;;
5549;SDS011;2798;42.716;23.256;2023-02-15T16:10:54;22.40;;;14.50;;
5549;SDS011;2798;42.716;23.256;2023-02-15T16:13:20;21.97;;;14.47;;
5549;SDS011;2798;42.716;23.256;2023-02-15T16:15:46;20.97;;;14.93;;
5549;SDS011;2798;42.716;23.256;2023-02-15T16:18:15;21.60;;;14.13;;
5549;SDS011;2798;42.716;23.256;2023-02-15T16:20:42;23.90;;;15.20;;
5549;SDS011;2798;42.716;23.256;2023-02-15T16:28:22;23.50;;;14.17;;
5549;SDS011;2798;42.716;23.256;2023-02-15T16:30:54;24.27;;;14.40;;
5549;SDS011;2798;42.716;23.256;2023-02-15T16:33:20;22.87;;;14.50;;
5549;SDS011;2798;42.716;23.256;2023-02-15T16:35:58;21.27;;;14.30;;
5549;SDS011;2798;42.716;23.256;2023-02-15T16:39:07;22.20;;;13.93;;
5549;SDS011;2798;42.716;23.256;2023-02-15T16:41:22;22.73;;;14.10;;
5549;SDS011;2798;42.716;23.256;2023-02-15T16:43:49;24.37;;;14.60;;
5549;SDS011;2798;42.716;23.256;2023-02-15T16:46:24;21.57;;;14.47;;
5549;SDS011;2798;42.716;23.256;2023-02-15T16:48:51;24.23;;;13.70;;
5549;SDS011;2798;42.716;23.256;2023-02-15T16:51:27;22.10;;;14.70;;
5549;SDS011;2798;42.716;23.256;2023-02-15T16:53:53;20.40;;;13.87;;
5549;SDS011;2798;42.716;23.256;2023-02-15T16:56:23;23.07;;;14.70;;
5549;SDS011;2798;42.716;23.256;2023-02-15T16:58:49;24.20;;;14.70;;
5549;SDS011;2798;42.716;23.256;2023-02-15T17:01:15;23.80;;;15.87;;
5549;SDS011;2798;42.716;23.256;2023-02-15T17:03:41;28.30;;;15.00;;
5549;SDS011;2798;42.716;23.256;2023-02-15T17:06:18;20.17;;;13.87;;
5549;SDS011;2798;42.716;23.256;2023-02-15T17:08:44;23.03;;;14.63;;
5549;SDS011;2798;42.716;23.256;2023-02-15T17:11:14;23.30;;;15.27;;
5549;SDS011;2798;42.716;23.256;2023-02-15T17:14:10;23.00;;;15.03;;
5549;SDS011;2798;42.716;23.256;2023-02-15T17:16:28;22.10;;;14.30;;
5549;SDS011;2798;42.716;23.256;2023-02-15T17:18:54;25.10;;;14.80;;